Time;durP1;ratioP1;P1;durP2;ratioP2;P2;SDS_P1;SDS_P2;PMS_P1;PMS_P2;Temp;Humidity;BMP_temperature;BMP_pressure;BME280_temperature;BME280_humidity;BME280_pressure;Samples;Min_cycle;Max_cycle;Signal;HPM_P1;HPM_P2
2022/05/11 00:00:27;;;;;;;6.95;4.18;;;13.90;99.90;;;;;;4826347;29;20050;-76
2022/05/11 00:02:53;;;;;;;7.82;4.85;;;13.90;99.90;;;;;;4826977;29;20190;-76
2022/05/11 00:05:19;;;;;;;6.57;4.13;;;13.90;99.90;;;;;;4826474;29;20050;-74
2022/05/11 00:07:44;;;;;;;6.97;4.28;;;13.90;99.90;;;;;;4826842;29;20530;-76
2022/05/11 00:10:13;;;;;;;8.45;3.90;;;13.80;99.90;;;;;;4827247;29;20054;-76
2022/05/11 00:12:42;;;;;;;10.43;4.70;;;13.80;99.90;;;;;;4826108;29;20054;-77
2022/05/11 00:15:13;;;;;;;6.88;4.13;;;13.80;99.90;;;;;;4825789;29;20079;-76
2022/05/11 00:17:39;;;;;;;8.07;4.22;;;13.80;99.90;;;;;;4828102;29;20050;-76
2022/05/11 00:20:06;;;;;;;7.68;3.72;;;13.80;99.90;;;;;;4826079;29;20506;-76
2022/05/11 00:22:34;;;;;;;7.22;4.00;;;13.90;99.90;;;;;;4826169;29;20074;-76
2022/05/11 00:25:00;;;;;;;6.25;4.15;;;13.90;99.90;;;;;;4826039;29;20460;-77
2022/05/11 00:27:26;;;;;;;5.13;3.90;;;13.90;99.90;;;;;;4827259;29;20046;-76
2022/05/11 00:29:52;;;;;;;6.93;3.88;;;13.90;99.90;;;;;;4813885;29;20095;-77
2022/05/11 00:32:17;;;;;;;6.45;4.13;;;13.90;99.90;;;;;;4814340;29;20060;-77
2022/05/11 00:34:43;;;;;;;7.43;4.13;;;13.90;99.90;;;;;;4828714;29;20050;-77
2022/05/11 00:37:09;;;;;;;8.50;4.00;;;14.00;99.90;;;;;;4826505;29;20050;-76
2022/05/11 00:39:35;;;;;;;7.22;3.83;;;13.90;99.90;;;;;;4827126;29;20066;-76
2022/05/11 00:42:02;;;;;;;6.90;4.10;;;13.90;99.90;;;;;;4826120;29;20058;-77
2022/05/11 00:44:28;;;;;;;7.63;4.25;;;13.90;99.90;;;;;;4826208;29;20066;-77
2022/05/11 00:47:01;;;;;;;6.32;4.20;;;13.90;99.90;;;;;;4828031;29;20465;-77
2022/05/11 00:49:38;;;;;;;6.05;4.22;;;13.90;99.90;;;;;;4827624;29;20054;-77
2022/05/11 00:52:13;;;;;;;8.10;4.07;;;13.90;99.90;;;;;;4827566;29;20129;-77
2022/05/11 00:54:55;;;;;;;5.38;3.95;;;13.90;99.90;;;;;;4826661;29;20053;-77
2022/05/11 00:57:50;;;;;;;7.10;4.13;;;13.90;99.90;;;;;;4827169;29;20053;-76
2022/05/11 01:00:20;;;;;;;6.72;3.90;;;13.90;99.90;;;;;;4825349;29;20171;-76
2022/05/11 01:03:01;;;;;;;6.28;4.05;;;13.90;99.90;;;;;;4826805;29;20047;-77
2022/05/11 01:05:27;;;;;;;5.25;3.90;;;13.90;99.90;;;;;;4826033;29;20054;-76
2022/05/11 01:07:56;;;;;;;6.40;3.90;;;13.90;99.90;;;;;;4826687;29;20051;-77
2022/05/11 01:10:23;;;;;;;5.85;4.22;;;13.90;99.90;;;;;;4826333;29;20050;-77
2022/05/11 01:12:53;;;;;;;6.70;3.83;;;13.90;99.90;;;;;;4826649;29;20357;-77
2022/05/11 01:15:20;;;;;;;6.68;3.72;;;13.90;99.90;;;;;;4826347;29;20046;-77
2022/05/11 01:17:45;;;;;;;6.25;3.42;;;13.90;99.90;;;;;;4826205;29;20051;-78
2022/05/11 01:20:17;;;;;;;5.93;3.63;;;13.90;99.90;;;;;;4826167;29;20051;-77
2022/05/11 01:22:56;;;;;;;6.47;3.83;;;13.90;99.90;;;;;;4825160;29;20146;-78
2022/05/11 01:25:23;;;;;;;7.28;3.47;;;14.00;99.90;;;;;;4826723;29;20400;-77
2022/05/11 01:27:49;;;;;;;5.82;3.28;;;13.90;99.90;;;;;;4824928;29;20450;-77
2022/05/11 01:30:23;;;;;;;5.75;3.35;;;13.90;99.90;;;;;;4825950;29;20049;-77
2022/05/11 01:32:52;;;;;;;6.88;3.90;;;13.90;99.90;;;;;;4826003;29;20109;-77
2022/05/11 01:35:36;;;;;;;5.03;3.13;;;13.90;99.90;;;;;;4825939;29;20052;-78
2022/05/11 01:38:08;;;;;;;7.25;3.10;;;13.90;99.90;;;;;;4825966;29;20436;-77
2022/05/11 01:40:34;;;;;;;5.13;3.05;;;13.90;99.90;;;;;;4825576;29;20133;-77
2022/05/11 01:43:00;;;;;;;4.93;3.22;;;13.90;99.90;;;;;;4824909;29;20058;-76
2022/05/11 01:45:26;;;;;;;8.35;3.45;;;13.90;99.90;;;;;;4824928;29;20046;-77
2022/05/11 01:47:56;;;;;;;5.43;2.80;;;13.90;99.90;;;;;;4824605;29;20092;-76
2022/05/11 01:50:22;;;;;;;5.32;3.55;;;13.80;99.90;;;;;;4826192;29;20042;-76
2022/05/11 01:52:49;;;;;;;6.25;2.88;;;13.80;99.90;;;;;;4826226;29;20448;-76
2022/05/11 01:55:15;;;;;;;4.80;2.58;;;13.80;99.90;;;;;;4825542;29;20072;-76
2022/05/11 01:57:41;;;;;;;5.28;2.50;;;13.80;99.90;;;;;;4824565;29;20050;-77
2022/05/11 02:00:08;;;;;;;4.38;2.63;;;13.80;99.90;;;;;;4825661;29;20119;-77
2022/05/11 02:02:33;;;;;;;5.00;2.85;;;13.80;99.90;;;;;;4825538;29;20429;-76
2022/05/11 02:07:49;;;;;;;5.28;2.60;;;13.80;99.90;;;;;;4825498;29;20058;-76
2022/05/11 02:10:20;;;;;;;4.43;2.95;;;13.80;99.90;;;;;;4825404;29;20110;-76
2022/05/11 02:12:46;;;;;;;3.25;2.53;;;13.80;99.90;;;;;;4825387;29;20050;-76
2022/05/11 02:15:14;;;;;;;5.53;2.88;;;13.80;99.90;;;;;;4826204;29;20066;-77
2022/05/11 02:17:41;;;;;;;3.90;2.63;;;13.80;99.90;;;;;;4809676;29;20058;-76
2022/05/11 02:20:08;;;;;;;4.63;2.75;;;13.80;99.90;;;;;;4826094;29;20535;-77
2022/05/11 02:22:34;;;;;;;4.88;3.00;;;13.80;99.90;;;;;;4825216;29;20082;-77
2022/05/11 02:25:00;;;;;;;5.05;3.17;;;13.80;99.90;;;;;;4824589;29;20078;-76
2022/05/11 02:27:25;;;;;;;4.80;2.92;;;13.80;99.90;;;;;;4824303;29;20058;-76
2022/05/11 02:29:51;;;;;;;6.60;3.63;;;13.80;99.90;;;;;;4824537;29;20050;-76
2022/05/11 02:32:17;;;;;;;6.90;3.38;;;13.80;99.90;;;;;;4824770;29;20118;-77
2022/05/11 02:37:27;;;;;;;6.93;3.80;;;13.70;99.90;;;;;;4825317;29;20468;-76
2022/05/11 02:39:52;;;;;;;7.63;3.92;;;13.80;99.90;;;;;;4825368;29;20101;-75
2022/05/11 02:42:18;;;;;;;5.28;3.80;;;13.80;99.90;;;;;;4824900;29;20054;-76
2022/05/11 02:44:45;;;;;;;7.72;3.97;;;13.80;99.90;;;;;;4809015;29;20050;-76
2022/05/11 02:47:12;;;;;;;6.70;3.10;;;13.80;99.90;;;;;;4825102;29;20432;-75
2022/05/11 02:49:37;;;;;;;5.28;3.22;;;13.80;99.90;;;;;;4808338;29;20058;-76
2022/05/11 02:52:03;;;;;;;6.00;3.20;;;13.80;99.90;;;;;;4825248;29;20043;-76
2022/05/11 02:54:29;;;;;;;4.53;2.70;;;13.80;99.90;;;;;;4809222;29;20054;-76
2022/05/11 02:56:55;;;;;;;6.45;2.97;;;13.80;99.90;;;;;;4823725;29;20058;-76
2022/05/11 02:59:20;;;;;;;5.13;2.78;;;13.80;99.90;;;;;;4825261;29;20062;-76
2022/05/11 03:01:49;;;;;;;7.68;2.75;;;13.80;99.90;;;;;;4808566;29;20050;-76
2022/05/11 03:04:15;;;;;;;5.55;2.72;;;13.80;99.90;;;;;;4824651;29;20459;-75
2022/05/11 03:06:42;;;;;;;5.47;3.03;;;13.80;99.90;;;;;;4824530;29;20119;-75
2022/05/11 03:09:08;;;;;;;7.20;3.67;;;13.80;99.90;;;;;;4823391;29;20123;-76
2022/05/11 03:11:34;;;;;;;5.75;3.67;;;13.80;99.90;;;;;;4824503;29;20051;-75
2022/05/11 03:13:59;;;;;;;4.78;3.58;;;13.80;99.90;;;;;;4824527;29;20076;-76
2022/05/11 03:16:25;;;;;;;5.60;3.40;;;13.80;99.90;;;;;;4825006;29;20365;-76
2022/05/11 03:18:51;;;;;;;7.30;4.25;;;13.80;99.90;;;;;;4824477;29;20129;-76
2022/05/11 03:21:17;;;;;;;6.60;4.30;;;13.80;99.90;;;;;;4824283;29;20160;-76
2022/05/11 03:23:42;;;;;;;15.63;10.30;;;13.80;99.90;;;;;;4824921;29;20380;-77
2022/05/11 03:26:11;;;;;;;23.30;16.15;;;13.80;99.90;;;;;;4823160;29;20429;-76
2022/05/11 03:28:37;;;;;;;18.35;13.63;;;13.80;99.90;;;;;;4824436;29;20055;-76
2022/05/11 03:31:02;;;;;;;14.85;9.90;;;13.80;99.90;;;;;;4823158;29;20122;-76
2022/05/11 03:36:12;;;;;;;9.45;4.65;;;13.80;99.90;;;;;;4823352;29;20062;-76
2022/05/11 03:38:38;;;;;;;8.00;4.15;;;13.80;99.90;;;;;;4824079;29;20050;-76
2022/05/11 03:41:04;;;;;;;6.05;3.35;;;13.80;99.90;;;;;;4823677;29;20403;-76
2022/05/11 03:43:29;;;;;;;6.80;3.67;;;13.80;99.90;;;;;;4823089;29;20050;-76
2022/05/11 03:45:55;;;;;;;7.00;2.80;;;13.80;99.90;;;;;;4823281;29;20047;-76
2022/05/11 03:48:21;;;;;;;5.82;3.30;;;13.80;99.90;;;;;;4824212;29;20073;-77
2022/05/11 03:50:46;;;;;;;7.38;3.25;;;13.90;99.90;;;;;;4824886;29;20424;-77
2022/05/11 03:53:12;;;;;;;7.13;3.33;;;13.80;99.90;;;;;;4824128;29;20399;-76
2022/05/11 03:55:38;;;;;;;5.70;2.97;;;13.90;99.90;;;;;;4824118;29;20047;-76
2022/05/11 03:58:03;;;;;;;5.88;3.17;;;13.90;99.90;;;;;;4824121;29;20054;-76
2022/05/11 04:00:29;;;;;;;6.70;3.30;;;13.90;99.90;;;;;;4824362;29;20073;-77
2022/05/11 04:02:56;;;;;;;5.53;3.17;;;13.90;99.90;;;;;;4825684;29;20068;-77
2022/05/11 04:05:22;;;;;;;5.63;3.80;;;13.90;99.90;;;;;;4827427;29;20081;-77
2022/05/11 04:07:48;;;;;;;7.53;3.78;;;13.90;99.90;;;;;;4810921;29;20495;-77
2022/05/11 04:10:16;;;;;;;7.07;3.13;;;13.90;99.90;;;;;;4825891;29;20049;-78
2022/05/11 04:12:41;;;;;;;6.78;3.05;;;13.90;99.90;;;;;;4827518;29;20069;-77
2022/05/11 04:15:08;;;;;;;6.05;3.00;;;13.90;99.90;;;;;;4827314;29;20137;-79
2022/05/11 04:17:35;;;;;;;7.22;2.83;;;13.90;99.90;;;;;;4826768;29;20091;-79
2022/05/11 04:20:01;;;;;;;6.43;3.17;;;13.90;99.90;;;;;;4826967;29;20536;-80
2022/05/11 04:22:26;;;;;;;6.70;3.45;;;13.90;99.90;;;;;;4826915;29;20090;-79
2022/05/11 04:24:52;;;;;;;7.18;2.90;;;13.90;99.90;;;;;;4825736;29;20450;-79
2022/05/11 04:27:18;;;;;;;5.97;2.90;;;13.90;99.90;;;;;;4826836;29;20054;-79
2022/05/11 04:29:43;;;;;;;5.93;2.83;;;13.90;99.90;;;;;;4826744;29;20403;-79
2022/05/11 04:32:10;;;;;;;7.90;3.10;;;14.00;99.90;;;;;;4826437;29;20066;-79
2022/05/11 04:34:40;;;;;;;5.30;2.50;;;13.90;99.90;;;;;;4825481;29;20098;-79
2022/05/11 04:37:06;;;;;;;6.07;3.05;;;14.00;99.90;;;;;;4826678;29;20050;-80
2022/05/11 04:39:31;;;;;;;5.93;2.85;;;14.00;99.90;;;;;;4825564;29;20058;-79
2022/05/11 04:41:57;;;;;;;3.28;2.45;;;14.00;99.90;;;;;;4825406;29;20127;-79
2022/05/11 04:44:23;;;;;;;5.10;3.13;;;14.00;99.90;;;;;;4825548;29;20050;-78
2022/05/11 04:46:49;;;;;;;6.22;2.95;;;14.00;99.90;;;;;;4826561;29;20053;-79
2022/05/11 04:49:17;;;;;;;5.82;2.90;;;14.00;99.90;;;;;;4825572;29;20057;-79
2022/05/11 04:51:51;;;;;;;7.72;3.42;;;14.00;99.90;;;;;;4826390;29;20141;-79
2022/05/11 04:54:17;;;;;;;7.35;2.88;;;14.00;99.90;;;;;;4826484;29;20046;-79
2022/05/11 04:56:44;;;;;;;6.28;3.25;;;14.00;99.90;;;;;;4810452;29;20129;-79
2022/05/11 04:59:12;;;;;;;7.82;3.13;;;14.00;99.90;;;;;;4826393;29;20440;-78
2022/05/11 05:01:38;;;;;;;7.88;2.92;;;14.00;99.90;;;;;;4826293;29;20050;-80
2022/05/11 05:04:04;;;;;;;6.95;2.83;;;14.10;99.90;;;;;;4826256;29;20090;-79
2022/05/11 05:06:33;;;;;;;4.30;2.30;;;14.10;99.90;;;;;;4825031;29;20096;-80
2022/05/11 05:09:03;;;;;;;5.20;2.97;;;14.10;99.90;;;;;;4826171;29;20484;-80
2022/05/11 05:11:29;;;;;;;5.70;3.00;;;14.10;99.90;;;;;;4826081;29;20129;-79
2022/05/11 05:13:55;;;;;;;4.93;2.22;;;14.20;99.90;;;;;;4826078;29;20460;-79
2022/05/11 05:16:21;;;;;;;6.70;2.55;;;14.20;99.90;;;;;;4825191;29;20058;-79
2022/05/11 05:18:46;;;;;;;7.55;3.00;;;14.20;99.90;;;;;;4824945;29;20054;-79
2022/05/11 05:21:12;;;;;;;4.97;2.35;;;14.20;99.90;;;;;;4809956;29;20089;-80
2022/05/11 05:23:38;;;;;;;5.57;2.30;;;14.30;99.90;;;;;;4809920;29;20054;-79
2022/05/11 05:26:03;;;;;;;4.80;2.92;;;14.30;99.90;;;;;;4824820;29;20050;-79
2022/05/11 05:31:17;;;;;;;4.95;2.72;;;14.30;99.90;;;;;;4826095;29;20423;-79
2022/05/11 05:33:43;;;;;;;5.82;2.75;;;14.30;99.90;;;;;;4824909;29;20054;-79
2022/05/11 05:36:11;;;;;;;6.25;2.70;;;14.30;99.90;;;;;;4826304;29;20061;-79
2022/05/11 05:38:38;;;;;;;7.63;3.20;;;14.40;99.90;;;;;;4826109;29;20368;-79
2022/05/11 05:41:09;;;;;;;8.93;3.33;;;14.40;99.90;;;;;;4825568;29;20062;-79
2022/05/11 05:43:35;;;;;;;6.38;2.85;;;14.40;99.90;;;;;;4826478;29;20050;-80
2022/05/11 05:46:01;;;;;;;7.88;3.17;;;14.40;99.90;;;;;;4825885;29;20098;-80
2022/05/11 05:48:27;;;;;;;6.18;3.00;;;14.40;99.90;;;;;;4825706;29;20057;-80
2022/05/11 05:51:01;;;;;;;9.07;2.90;;;14.50;99.90;;;;;;4826042;29;20459;-79
2022/05/11 05:53:27;;;;;;;7.93;3.35;;;14.50;99.90;;;;;;4810182;29;20058;-79
2022/05/11 05:55:53;;;;;;;6.53;3.22;;;14.50;99.90;;;;;;4825525;29;20050;-79
2022/05/11 05:58:19;;;;;;;9.80;3.88;;;14.60;99.90;;;;;;4825267;29;20053;-79
2022/05/11 06:00:45;;;;;;;7.68;3.10;;;14.60;99.90;;;;;;4825450;29;20046;-79
2022/05/11 06:03:12;;;;;;;5.97;3.53;;;14.60;99.90;;;;;;4825337;29;20133;-79
2022/05/11 06:05:38;;;;;;;5.22;3.03;;;14.60;99.90;;;;;;4825332;29;20089;-79
2022/05/11 06:08:04;;;;;;;6.07;2.67;;;14.60;99.90;;;;;;4825259;29;20126;-79
2022/05/11 06:10:30;;;;;;;5.28;2.80;;;14.70;99.90;;;;;;4825304;29;20053;-80
2022/05/11 06:12:56;;;;;;;6.60;3.40;;;14.70;99.90;;;;;;4825877;29;20129;-80
2022/05/11 06:15:21;;;;;;;7.35;2.90;;;14.80;99.90;;;;;;4825121;29;20058;-79
2022/05/11 06:17:47;;;;;;;6.72;2.60;;;14.80;99.90;;;;;;4825232;29;20050;-79
2022/05/11 06:20:13;;;;;;;6.78;2.80;;;14.80;99.90;;;;;;4793980;29;20058;-79
2022/05/11 06:22:40;;;;;;;6.97;3.38;;;14.90;99.90;;;;;;4824531;29;20483;-79
2022/05/11 06:25:06;;;;;;;5.50;3.15;;;14.90;99.90;;;;;;4824975;29;20079;-77
2022/05/11 06:27:32;;;;;;;8.30;3.25;;;14.90;99.90;;;;;;4809672;29;20096;-80
2022/05/11 06:29:59;;;;;;;5.70;3.20;;;14.90;99.90;;;;;;4826232;29;20093;-80
2022/05/11 06:32:26;;;;;;;5.47;3.03;;;15.00;99.90;;;;;;4825477;29;20115;-80
2022/05/11 06:34:53;;;;;;;9.00;3.83;;;15.00;99.90;;;;;;4825723;29;20502;-80
2022/05/11 06:37:23;;;;;;;5.68;3.08;;;15.00;99.90;;;;;;4826631;29;20050;-80
2022/05/11 06:39:50;;;;;;;42.28;9.45;;;15.10;99.90;;;;;;4824499;29;20069;-78
2022/05/11 06:42:16;;;;;;;77.60;12.27;;;15.10;99.90;;;;;;4825084;29;20059;-79
2022/05/11 06:44:42;;;;;;;15.43;4.93;;;15.10;99.90;;;;;;4825316;29;20099;-79
2022/05/11 06:47:08;;;;;;;7.63;3.42;;;15.20;99.90;;;;;;4824821;29;20050;-79
2022/05/11 06:49:34;;;;;;;10.15;4.47;;;15.20;99.90;;;;;;4823720;29;20055;-78
2022/05/11 06:52:01;;;;;;;8.68;3.60;;;15.20;99.90;;;;;;4824531;29;20554;-79
2022/05/11 06:59:56;;;;;;;10.63;4.10;;;15.50;99.90;;;;;;4824614;29;20103;-79
2022/05/11 07:02:23;;;;;;;6.65;3.67;;;15.50;99.90;;;;;;4823861;29;20133;-80
2022/05/11 07:04:49;;;;;;;8.32;3.47;;;15.60;99.90;;;;;;4823858;29;20047;-80
2022/05/11 07:07:15;;;;;;;6.30;2.70;;;15.60;99.90;;;;;;4824653;29;20096;-77
2022/05/11 07:09:41;;;;;;;7.78;3.70;;;15.70;99.90;;;;;;4824509;29;20507;-79
2022/05/11 07:12:17;;;;;;;7.82;3.47;;;15.70;99.90;;;;;;4824353;29;20482;-80
2022/05/11 07:14:51;;;;;;;9.45;3.88;;;15.70;99.90;;;;;;4824510;29;20053;-82
2022/05/11 07:17:35;;;;;;;8.73;3.47;;;15.60;99.90;;;;;;4830211;29;20057;-80
2022/05/11 07:20:33;;;;;;;6.80;2.85;;;15.60;99.90;;;;;;4825166;29;20050;-77
2022/05/11 07:23:03;;;;;;;10.77;3.50;;;15.60;99.90;;;;;;4823650;29;20057;-81
2022/05/11 07:25:29;;;;;;;8.57;3.33;;;15.60;99.90;;;;;;4824622;29;20099;-81
2022/05/11 07:27:57;;;;;;;7.63;3.40;;;15.60;99.90;;;;;;4824524;29;20047;-78
2022/05/11 07:30:35;;;;;;;7.13;3.55;;;15.60;99.90;;;;;;4824185;29;20098;-82
2022/05/11 07:33:02;;;;;;;8.52;3.75;;;15.60;99.90;;;;;;4824532;29;20051;-78
2022/05/11 07:35:29;;;;;;;6.35;3.58;;;15.60;99.90;;;;;;4808874;29;20062;-79
2022/05/11 07:37:54;;;;;;;9.63;2.95;;;15.60;99.90;;;;;;4826144;29;20059;-76
2022/05/11 07:40:21;;;;;;;4.90;3.13;;;15.70;99.90;;;;;;4828146;29;20061;-78
2022/05/11 07:42:47;;;;;;;6.95;3.00;;;15.80;99.90;;;;;;4827793;29;20211;-79
2022/05/11 07:45:15;;;;;;;9.43;3.22;;;15.90;99.90;;;;;;4827686;29;20064;-82
2022/05/11 07:47:41;;;;;;;7.90;3.30;;;15.90;99.90;;;;;;4827668;29;20089;-81
2022/05/11 07:50:08;;;;;;;9.48;3.13;;;15.90;99.90;;;;;;4827521;29;20532;-77
2022/05/11 07:52:34;;;;;;;6.70;3.10;;;15.90;99.90;;;;;;4826679;29;20062;-82
2022/05/11 07:55:00;;;;;;;4.82;2.47;;;16.00;99.90;;;;;;4827581;29;20058;-81
2022/05/11 08:00:11;;;;;;;7.30;4.10;;;16.10;99.90;;;;;;4828038;29;20082;-78
2022/05/11 08:02:39;;;;;;;6.68;2.72;;;16.10;99.90;;;;;;4826356;29;20507;-78
2022/05/11 08:05:13;;;;;;;5.15;3.20;;;16.20;99.90;;;;;;4827328;29;20103;-76
2022/05/11 08:07:43;;;;;;;8.68;3.08;;;16.30;99.90;;;;;;4826325;29;20057;-78
2022/05/11 08:10:22;;;;;;;7.03;2.80;;;16.30;99.90;;;;;;4826187;29;20051;-79
2022/05/11 08:12:49;;;;;;;7.38;2.60;;;16.50;99.90;;;;;;4826346;29;20058;-78
2022/05/11 08:15:17;;;;;;;6.93;2.70;;;16.50;99.90;;;;;;4826112;29;20089;-81
2022/05/11 08:17:43;;;;;;;6.53;3.08;;;16.50;99.90;;;;;;4827179;29;20079;-76
2022/05/11 08:20:14;;;;;;;7.00;2.95;;;16.50;99.90;;;;;;4827139;29;20061;-78
2022/05/11 08:22:42;;;;;;;7.78;2.55;;;16.60;99.90;;;;;;4827951;29;20050;-75
2022/05/11 08:25:09;;;;;;;7.20;2.50;;;16.60;99.90;;;;;;4827684;29;20054;-77
2022/05/11 08:27:35;;;;;;;9.30;2.28;;;16.60;99.90;;;;;;4811802;29;20058;-77
2022/05/11 08:35:31;;;;;;;6.95;2.28;;;16.60;99.90;;;;;;4827353;29;20149;-74
2022/05/11 08:37:57;;;;;;;5.05;1.95;;;16.60;99.90;;;;;;4826460;29;20065;-74
2022/05/11 08:40:37;;;;;;;8.00;2.63;;;16.70;99.90;;;;;;4825334;29;20066;-76
2022/05/11 08:43:08;;;;;;;6.15;2.00;;;16.80;99.90;;;;;;4826778;29;20058;-74
2022/05/11 08:45:57;;;;;;;6.85;2.38;;;16.80;99.90;;;;;;4826788;29;20046;-75
2022/05/11 08:49:05;;;;;;;6.25;2.30;;;16.90;99.90;;;;;;4826789;29;20065;-80
2022/05/11 08:51:53;;;;;;;6.28;1.73;;;17.00;99.90;;;;;;4826189;29;20046;-77
2022/05/11 08:54:28;;;;;;;5.70;2.15;;;17.00;99.90;;;;;;4825933;29;20081;-77
2022/05/11 08:56:55;;;;;;;6.47;1.67;;;17.00;99.90;;;;;;4826820;29;20520;-76
2022/05/11 08:59:25;;;;;;;8.73;1.65;;;17.00;99.90;;;;;;4826856;29;20060;-77
2022/05/11 09:02:03;;;;;;;6.18;1.58;;;17.00;99.90;;;;;;4824899;29;20492;-73
2022/05/11 09:04:42;;;;;;;5.50;1.25;;;17.10;99.90;;;;;;4824471;29;20060;-77
2022/05/11 09:07:10;;;;;;;8.15;1.33;;;17.10;99.90;;;;;;4825693;29;20110;-74
2022/05/11 09:09:37;;;;;;;6.78;1.05;;;17.20;99.90;;;;;;4825479;29;20509;-74
2022/05/11 09:12:03;;;;;;;6.07;1.40;;;17.30;99.90;;;;;;4825672;29;20054;-75
2022/05/11 09:14:37;;;;;;;5.43;1.08;;;17.30;99.90;;;;;;4825799;29;20463;-78
2022/05/11 09:17:06;;;;;;;6.97;1.23;;;17.40;99.90;;;;;;4825298;29;20050;-74
2022/05/11 09:19:33;;;;;;;6.38;1.02;;;17.40;99.90;;;;;;4825537;29;20046;-77
2022/05/11 09:22:10;;;;;;;4.55;1.02;;;17.40;99.90;;;;;;4825757;29;20088;-76
2022/05/11 09:25:04;;;;;;;7.38;1.17;;;17.50;99.90;;;;;;4825600;29;20128;-73
2022/05/11 09:27:34;;;;;;;8.82;1.45;;;17.60;99.90;;;;;;4823370;29;20141;-74
2022/05/11 09:30:16;;;;;;;6.90;1.02;;;17.70;99.90;;;;;;4810681;29;20058;-76
2022/05/11 09:32:45;;;;;;;6.80;1.50;;;17.80;99.90;;;;;;4826075;29;20051;-78
2022/05/11 09:35:25;;;;;;;4.38;1.20;;;17.70;99.90;;;;;;4825701;29;20050;-75
2022/05/11 09:38:38;;;;;;;3.67;1.10;;;17.60;99.90;;;;;;4829305;29;20106;-78
2022/05/11 09:41:22;;;;;;;5.22;1.10;;;17.70;99.90;;;;;;4824560;29;20077;-75
2022/05/11 09:43:55;;;;;;;5.10;1.17;;;17.80;99.90;;;;;;4830896;29;20058;-73
2022/05/11 09:46:27;;;;;;;8.27;1.58;;;17.90;99.90;;;;;;4828439;29;20096;-75
2022/05/11 09:49:06;;;;;;;4.20;1.35;;;18.10;99.90;;;;;;4825355;29;20133;-73
2022/05/11 09:51:45;;;;;;;6.25;1.30;;;18.10;99.90;;;;;;4827492;29;20058;-76
2022/05/11 09:54:33;;;;;;;4.32;1.17;;;18.00;99.90;;;;;;4827385;29;20070;-72
2022/05/11 09:57:15;;;;;;;4.93;1.33;;;18.10;99.90;;;;;;4827303;29;20046;-75
2022/05/11 09:59:51;;;;;;;6.88;0.88;;;18.10;99.90;;;;;;4826280;29;20478;-74
2022/05/11 10:02:25;;;;;;;9.52;1.17;;;18.10;99.90;;;;;;4825889;29;20062;-72
2022/05/11 10:05:11;;;;;;;6.00;1.05;;;18.10;99.90;;;;;;4825078;29;20050;-75
2022/05/11 10:08:03;;;;;;;6.90;1.20;;;18.10;99.90;;;;;;4825569;29;20158;-77
2022/05/11 10:10:54;;;;;;;7.07;1.13;;;18.10;99.90;;;;;;4806129;29;20046;-81
2022/05/11 10:13:42;;;;;;;7.55;1.00;;;18.20;99.90;;;;;;4824425;29;20055;-74
2022/05/11 10:22:09;;;;;;;3.22;0.90;;;19.10;99.90;;;;;;4824605;29;20066;-75
2022/05/11 10:25:00;;;;;;;5.60;0.90;;;18.50;99.40;;;;;;4824500;29;20054;-76
2022/05/11 10:27:47;;;;;;;7.00;0.88;;;18.50;99.90;;;;;;4825874;29;20137;-79
2022/05/11 10:30:32;;;;;;;2.40;0.63;;;18.70;99.90;;;;;;4825046;29;20046;-76
2022/05/11 10:33:16;;;;;;;3.65;0.63;;;18.90;98.40;;;;;;4824305;29;20134;-77
2022/05/11 10:35:57;;;;;;;4.10;0.70;;;19.00;96.00;;;;;;4809221;29;20133;-75
2022/05/11 10:38:32;;;;;;;3.90;0.60;;;19.20;97.40;;;;;;4824975;29;20372;-75
2022/05/11 10:41:02;;;;;;;2.92;0.60;;;19.20;96.60;;;;;;4825092;29;20069;-73
2022/05/11 10:43:48;;;;;;;5.07;0.82;;;19.30;95.30;;;;;;4828205;29;20066;-80
2022/05/11 10:46:18;;;;;;;4.38;0.70;;;19.30;93.90;;;;;;4825302;29;20090;-80
2022/05/11 10:49:02;;;;;;;4.72;1.15;;;19.10;94.80;;;;;;4825794;29;20058;-74
2022/05/11 10:51:45;;;;;;;7.10;1.20;;;19.10;95.60;;;;;;4808293;29;20133;-72
2022/05/11 10:54:33;;;;;;;4.32;1.00;;;19.10;96.10;;;;;;4825208;29;20077;-78
2022/05/11 10:57:16;;;;;;;4.20;1.00;;;18.90;95.80;;;;;;4824990;29;20073;-78
2022/05/11 11:00:15;;;;;;;5.22;1.25;;;18.80;96.50;;;;;;4824052;29;20566;-84
2022/05/11 11:03:00;;;;;;;6.57;1.02;;;18.70;96.10;;;;;;4819626;29;20062;-82
2022/05/11 11:07:11;;;;;;;5.32;1.20;;;18.70;96.80;;;;;;4824505;29;20054;-77
2022/05/11 11:08:43;;;;;;;4.32;1.10;;;18.70;96.30;;;;;;4824501;29;20058;-78
2022/05/11 11:11:29;;;;;;;6.00;1.15;;;18.60;96.50;;;;;;4825502;29;20085;-79
2022/05/11 11:14:00;;;;;;;5.57;0.75;;;18.50;96.30;;;;;;4828497;29;20054;-77
2022/05/11 11:16:38;;;;;;;3.10;0.90;;;18.50;95.70;;;;;;4829124;29;20066;-75
2022/05/11 11:19:06;;;;;;;2.53;0.70;;;18.50;96.00;;;;;;4829242;29;20064;-80
2022/05/11 11:21:33;;;;;;;5.55;1.10;;;18.60;95.40;;;;;;4827676;29;20047;-73
2022/05/11 11:24:17;;;;;;;5.93;1.33;;;18.70;95.70;;;;;;4827199;29;20054;-72
2022/05/11 11:26:59;;;;;;;6.07;1.05;;;18.80;95.60;;;;;;4829006;29;20050;-77
2022/05/11 11:29:36;;;;;;;2.97;0.98;;;18.70;95.50;;;;;;4828803;29;20476;-77
2022/05/11 11:32:19;;;;;;;3.40;0.70;;;18.70;95.10;;;;;;4828532;29;20062;-72
2022/05/11 11:34:48;;;;;;;5.30;0.80;;;18.60;94.90;;;;;;4828684;29;20390;-76
2022/05/11 11:37:39;;;;;;;1.48;0.60;;;18.60;94.60;;;;;;4828640;29;20094;-78
2022/05/11 11:40:14;;;;;;;4.35;0.55;;;18.70;94.10;;;;;;4825212;29;20113;-79
2022/05/11 11:42:44;;;;;;;2.58;0.85;;;18.70;92.50;;;;;;4827618;29;20054;-77
2022/05/11 11:45:29;;;;;;;4.40;0.63;;;18.70;91.40;;;;;;4828201;29;20046;-75
2022/05/11 11:48:15;;;;;;;5.50;0.77;;;18.90;90.50;;;;;;4827473;29;20057;-78
2022/05/11 11:50:50;;;;;;;3.92;0.50;;;19.00;88.70;;;;;;4826173;29;20391;-80
2022/05/11 11:53:27;;;;;;;3.35;0.47;;;19.10;90.40;;;;;;4826548;29;20576;-72
2022/05/11 11:55:53;;;;;;;4.72;0.50;;;19.20;90.00;;;;;;4827353;29;20057;-76
2022/05/11 11:58:24;;;;;;;2.65;0.50;;;19.30;88.80;;;;;;4826869;29;20054;-70
2022/05/11 12:00:57;;;;;;;6.63;0.60;;;19.30;87.60;;;;;;4826896;29;20049;-74
2022/05/11 12:03:26;;;;;;;3.03;0.50;;;19.40;88.80;;;;;;4825557;29;20054;-75
2022/05/11 12:05:55;;;;;;;3.33;0.55;;;19.50;87.90;;;;;;4826803;29;20069;-77
2022/05/11 12:16:57;;;;;;;3.45;0.77;;;19.60;85.40;;;;;;4826541;29;20054;-74
2022/05/11 12:19:26;;;;;;;3.78;0.65;;;19.60;84.10;;;;;;4826763;29;20046;-76
2022/05/11 12:22:04;;;;;;;2.65;0.70;;;19.60;83.30;;;;;;4827154;29;20062;-76
2022/05/11 12:24:37;;;;;;;4.75;0.65;;;19.70;83.40;;;;;;4826814;29;20055;-76
2022/05/11 12:27:12;;;;;;;1.90;0.70;;;19.60;83.60;;;;;;4827338;29;20050;-72
2022/05/11 12:29:58;;;;;;;3.85;0.55;;;19.70;83.40;;;;;;4825918;29;20499;-78
2022/05/11 12:32:26;;;;;;;3.55;0.63;;;19.70;83.20;;;;;;4826059;29;20074;-74
2022/05/11 12:34:53;;;;;;;2.72;0.60;;;19.70;82.10;;;;;;4826981;29;20054;-79
2022/05/11 12:37:30;;;;;;;3.42;0.50;;;19.70;83.20;;;;;;4826131;29;20507;-76
2022/05/11 12:39:56;;;;;;;2.55;0.60;;;19.70;82.80;;;;;;4826359;29;20058;-78
2022/05/11 12:42:55;;;;;;;2.63;0.50;;;19.80;82.50;;;;;;4825891;29;20073;-77
2022/05/11 12:45:38;;;;;;;3.53;0.50;;;19.90;81.30;;;;;;4827590;29;20094;-77
2022/05/11 12:48:04;;;;;;;4.07;0.90;;;19.90;79.20;;;;;;4825791;29;20059;-78
2022/05/11 12:50:33;;;;;;;3.03;0.70;;;19.90;80.40;;;;;;4826446;29;20050;-78
2022/05/11 12:53:00;;;;;;;3.97;0.60;;;19.90;80.90;;;;;;4824615;29;20062;-78
2022/05/11 12:55:31;;;;;;;4.00;0.70;;;19.90;80.60;;;;;;4825920;29;20103;-78
2022/05/11 12:57:56;;;;;;;4.55;0.55;;;19.90;80.70;;;;;;4826293;29;20093;-79
2022/05/11 13:00:28;;;;;;;4.57;0.80;;;20.00;81.60;;;;;;4826015;29;20075;-78
2022/05/11 13:02:56;;;;;;;3.50;0.75;;;20.10;79.90;;;;;;4824919;29;20193;-77
2022/05/11 13:05:23;;;;;;;2.63;0.60;;;20.00;79.50;;;;;;4825988;29;20135;-77
2022/05/11 13:08:00;;;;;;;1.27;0.50;;;20.00;80.00;;;;;;4824479;29;20082;-76
2022/05/11 13:10:30;;;;;;;2.83;0.60;;;20.00;78.90;;;;;;4825603;29;20090;-77
2022/05/11 13:12:58;;;;;;;3.10;0.50;;;20.30;79.40;;;;;;4825442;29;20070;-77
2022/05/11 13:15:39;;;;;;;6.05;0.70;;;20.10;80.20;;;;;;4825540;29;20112;-83
2022/05/11 13:18:08;;;;;;;3.67;0.80;;;20.10;79.60;;;;;;4825316;29;20058;-81
2022/05/11 13:20:41;;;;;;;6.40;1.42;;;20.20;79.20;;;;;;4825577;29;20070;-81
2022/05/11 13:23:28;;;;;;;2.80;0.70;;;20.20;78.50;;;;;;4825184;29;20054;-75
2022/05/11 13:25:57;;;;;;;5.78;1.13;;;20.20;78.70;;;;;;4826036;29;20133;-76
2022/05/11 13:28:29;;;;;;;2.63;0.60;;;20.30;78.40;;;;;;4825719;29;20050;-75
2022/05/11 13:30:58;;;;;;;2.72;0.68;;;20.40;78.60;;;;;;4824748;29;20058;-77
2022/05/11 13:33:30;;;;;;;6.00;1.10;;;20.30;78.00;;;;;;4809115;29;20111;-76
2022/05/11 13:36:19;;;;;;;4.38;0.73;;;20.50;78.10;;;;;;4824797;29;20440;-76
2022/05/11 13:38:55;;;;;;;3.88;0.75;;;20.50;77.90;;;;;;4823996;29;20119;-74
2022/05/11 13:41:32;;;;;;;4.90;0.85;;;20.50;76.40;;;;;;4825449;29;20066;-74
2022/05/11 13:44:23;;;;;;;4.95;1.02;;;20.50;77.20;;;;;;4824940;29;20058;-74